Chadwick Bay, New York
Current Conditions -  °F | °C
As of 4:53 PM on Wednesday 22 Oct 2014 (Local Time) from KDKK Reporting Station
Overcast Overcast  
Wind Chill: 43°   Ceiling: 1700
Heat Index: 48°   Visibility: 10mi
Dew Point: 41°   Wind: 12mph
Humidity: 77%   Direction: 360°N
Pressure: 30.21"   Gusts: NA
Location:  42.4788°N, 79.3113°W
Report Text: KDKK 222053Z AUTO 36010KT 10SM OVC017 09/05 A3021 RMK AO2 SLP235 T00890050 58001
Loading
Personal Weather Stations






























Interactive Weather Map
Tropical Storm Tracking
New forecast layout! Learn more

10-Day Weather Forecast

Advertisements
Track Severe Weather on mobile